sensor_id;sensor_type;location;lat;lon;timestamp;temperature;humidity
30520;DHT22;17300;50.374;8.006;2023-04-24T00:00:46;15.00;56.60
30520;DHT22;17300;50.374;8.006;2023-04-24T00:03:12;15.00;56.70
30520;DHT22;17300;50.374;8.006;2023-04-24T00:05:40;15.00;56.70
30520;DHT22;17300;50.374;8.006;2023-04-24T00:08:07;15.00;56.70
30520;DHT22;17300;50.374;8.006;2023-04-24T00:10:34;15.00;56.50
30520;DHT22;17300;50.374;8.006;2023-04-24T00:13:01;15.00;56.40
30520;DHT22;17300;50.374;8.006;2023-04-24T00:15:28;15.00;56.40
30520;DHT22;17300;50.374;8.006;2023-04-24T00:17:54;15.00;56.60
30520;DHT22;17300;50.374;8.006;2023-04-24T00:20:21;14.90;56.60
30520;DHT22;17300;50.374;8.006;2023-04-24T00:22:49;14.90;56.70
30520;DHT22;17300;50.374;8.006;2023-04-24T00:25:16;14.90;56.70
30520;DHT22;17300;50.374;8.006;2023-04-24T00:27:42;14.90;56.80
30520;DHT22;17300;50.374;8.006;2023-04-24T00:30:09;14.90;56.80
30520;DHT22;17300;50.374;8.006;2023-04-24T00:32:36;14.90;56.80
30520;DHT22;17300;50.374;8.006;2023-04-24T00:35:04;15.00;56.90
30520;DHT22;17300;50.374;8.006;2023-04-24T00:37:31;14.90;56.80
30520;DHT22;17300;50.374;8.006;2023-04-24T00:39:59;14.90;56.70
30520;DHT22;17300;50.374;8.006;2023-04-24T00:42:25;14.90;56.70
30520;DHT22;17300;50.374;8.006;2023-04-24T00:44:53;14.90;56.70
30520;DHT22;17300;50.374;8.006;2023-04-24T00:47:20;14.90;56.80
30520;DHT22;17300;50.374;8.006;2023-04-24T00:49:47;14.90;56.90
30520;DHT22;17300;50.374;8.006;2023-04-24T00:52:14;14.90;57.10
30520;DHT22;17300;50.374;8.006;2023-04-24T00:54:43;14.90;57.20
30520;DHT22;17300;50.374;8.006;2023-04-24T00:57:11;15.00;57.40
30520;DHT22;17300;50.374;8.006;2023-04-24T00:59:39;15.00;57.40
30520;DHT22;17300;50.374;8.006;2023-04-24T01:02:06;15.00;57.30
30520;DHT22;17300;50.374;8.006;2023-04-24T01:04:34;15.00;57.40
30520;DHT22;17300;50.374;8.006;2023-04-24T01:07:01;15.00;57.40
30520;DHT22;17300;50.374;8.006;2023-04-24T01:09:28;15.00;57.20
30520;DHT22;17300;50.374;8.006;2023-04-24T01:11:55;15.10;57.40
30520;DHT22;17300;50.374;8.006;2023-04-24T01:14:24;15.10;57.40
30520;DHT22;17300;50.374;8.006;2023-04-24T01:16:51;15.10;57.50
30520;DHT22;17300;50.374;8.006;2023-04-24T01:19:19;15.20;57.50
30520;DHT22;17300;50.374;8.006;2023-04-24T01:21:47;15.20;57.30
30520;DHT22;17300;50.374;8.006;2023-04-24T01:24:17;15.30;57.20
30520;DHT22;17300;50.374;8.006;2023-04-24T01:26:44;15.30;57.30
30520;DHT22;17300;50.374;8.006;2023-04-24T01:29:11;15.40;57.30
30520;DHT22;17300;50.374;8.006;2023-04-24T01:31:38;15.40;57.70
30520;DHT22;17300;50.374;8.006;2023-04-24T01:34:06;15.40;57.20
30520;DHT22;17300;50.374;8.006;2023-04-24T01:36:34;15.40;57.20
30520;DHT22;17300;50.374;8.006;2023-04-24T01:39:06;15.40;57.10
30520;DHT22;17300;50.374;8.006;2023-04-24T01:41:34;15.50;57.20
30520;DHT22;17300;50.374;8.006;2023-04-24T01:44:01;15.50;57.00
30520;DHT22;17300;50.374;8.006;2023-04-24T01:46:28;15.50;57.00
30520;DHT22;17300;50.374;8.006;2023-04-24T01:48:56;15.50;56.90
30520;DHT22;17300;50.374;8.006;2023-04-24T01:51:23;15.50;56.80
30520;DHT22;17300;50.374;8.006;2023-04-24T01:53:49;15.50;56.70
30520;DHT22;17300;50.374;8.006;2023-04-24T01:56:16;15.60;56.60
30520;DHT22;17300;50.374;8.006;2023-04-24T01:58:45;15.60;56.60
30520;DHT22;17300;50.374;8.006;2023-04-24T02:01:15;15.60;56.50
30520;DHT22;17300;50.374;8.006;2023-04-24T02:03:44;15.60;56.60
30520;DHT22;17300;50.374;8.006;2023-04-24T02:06:10;15.60;56.30
30520;DHT22;17300;50.374;8.006;2023-04-24T02:08:37;15.60;56.30
30520;DHT22;17300;50.374;8.006;2023-04-24T02:11:04;15.50;56.30
30520;DHT22;17300;50.374;8.006;2023-04-24T02:13:31;15.50;56.30
30520;DHT22;17300;50.374;8.006;2023-04-24T02:15:59;15.50;56.20
30520;DHT22;17300;50.374;8.006;2023-04-24T02:18:26;15.50;56.10
30520;DHT22;17300;50.374;8.006;2023-04-24T02:20:53;15.50;56.20
30520;DHT22;17300;50.374;8.006;2023-04-24T02:23:19;15.50;56.90
30520;DHT22;17300;50.374;8.006;2023-04-24T02:25:46;15.50;56.40
30520;DHT22;17300;50.374;8.006;2023-04-24T02:28:13;15.50;56.40
30520;DHT22;17300;50.374;8.006;2023-04-24T02:30:39;15.40;56.30
30520;DHT22;17300;50.374;8.006;2023-04-24T02:33:08;15.40;56.30
30520;DHT22;17300;50.374;8.006;2023-04-24T02:35:34;15.40;56.30
30520;DHT22;17300;50.374;8.006;2023-04-24T02:38:01;15.40;56.20
30520;DHT22;17300;50.374;8.006;2023-04-24T02:40:28;15.40;56.20
30520;DHT22;17300;50.374;8.006;2023-04-24T02:42:55;15.40;56.00
30520;DHT22;17300;50.374;8.006;2023-04-24T02:45:21;15.40;56.00
30520;DHT22;17300;50.374;8.006;2023-04-24T02:47:48;15.40;55.90
30520;DHT22;17300;50.374;8.006;2023-04-24T02:50:16;15.40;55.80
30520;DHT22;17300;50.374;8.006;2023-04-24T02:52:43;15.30;55.50
30520;DHT22;17300;50.374;8.006;2023-04-24T02:55:10;15.30;55.50
30520;DHT22;17300;50.374;8.006;2023-04-24T02:57:36;15.30;55.50
30520;DHT22;17300;50.374;8.006;2023-04-24T03:00:04;15.30;55.60
30520;DHT22;17300;50.374;8.006;2023-04-24T03:02:32;15.30;56.10
30520;DHT22;17300;50.374;8.006;2023-04-24T03:04:59;15.30;55.50
30520;DHT22;17300;50.374;8.006;2023-04-24T03:07:27;15.30;55.30
30520;DHT22;17300;50.374;8.006;2023-04-24T03:09:54;15.30;55.30
30520;DHT22;17300;50.374;8.006;2023-04-24T03:12:21;15.30;55.10
30520;DHT22;17300;50.374;8.006;2023-04-24T03:14:49;15.20;55.10
30520;DHT22;17300;50.374;8.006;2023-04-24T03:17:15;15.20;55.00
30520;DHT22;17300;50.374;8.006;2023-04-24T03:19:42;15.20;55.00
30520;DHT22;17300;50.374;8.006;2023-04-24T03:22:09;15.20;54.90
30520;DHT22;17300;50.374;8.006;2023-04-24T03:24:38;15.10;54.60
30520;DHT22;17300;50.374;8.006;2023-04-24T03:27:04;15.10;54.60
30520;DHT22;17300;50.374;8.006;2023-04-24T03:29:31;15.00;54.40
30520;DHT22;17300;50.374;8.006;2023-04-24T03:31:57;15.00;54.20
30520;DHT22;17300;50.374;8.006;2023-04-24T03:34:24;15.00;54.00
30520;DHT22;17300;50.374;8.006;2023-04-24T03:36:51;14.90;53.80
30520;DHT22;17300;50.374;8.006;2023-04-24T03:39:18;14.80;53.70
30520;DHT22;17300;50.374;8.006;2023-04-24T03:41:46;14.70;53.70
30520;DHT22;17300;50.374;8.006;2023-04-24T03:44:13;14.60;53.70
30520;DHT22;17300;50.374;8.006;2023-04-24T03:46:39;14.50;53.50
30520;DHT22;17300;50.374;8.006;2023-04-24T03:49:06;14.50;53.60
30520;DHT22;17300;50.374;8.006;2023-04-24T03:51:33;14.40;53.60
30520;DHT22;17300;50.374;8.006;2023-04-24T03:53:59;14.30;53.50
30520;DHT22;17300;50.374;8.006;2023-04-24T03:56:26;14.20;53.40
30520;DHT22;17300;50.374;8.006;2023-04-24T03:58:54;14.20;53.50
30520;DHT22;17300;50.374;8.006;2023-04-24T04:01:21;14.00;53.60
30520;DHT22;17300;50.374;8.006;2023-04-24T04:03:48;14.00;53.60
30520;DHT22;17300;50.374;8.006;2023-04-24T04:06:15;13.90;53.50
30520;DHT22;17300;50.374;8.006;2023-04-24T04:08:41;13.90;53.50
30520;DHT22;17300;50.374;8.006;2023-04-24T04:11:08;13.80;53.50
30520;DHT22;17300;50.374;8.006;2023-04-24T04:13:35;13.70;54.10
30520;DHT22;17300;50.374;8.006;2023-04-24T04:16:03;13.70;53.50
30520;DHT22;17300;50.374;8.006;2023-04-24T04:18:29;13.60;53.60
30520;DHT22;17300;50.374;8.006;2023-04-24T04:20:56;13.60;53.40
30520;DHT22;17300;50.374;8.006;2023-04-24T04:23:23;13.50;53.30
30520;DHT22;17300;50.374;8.006;2023-04-24T04:25:49;13.50;53.30
30520;DHT22;17300;50.374;8.006;2023-04-24T04:28:17;13.40;53.30
30520;DHT22;17300;50.374;8.006;2023-04-24T04:30:45;13.40;53.40
30520;DHT22;17300;50.374;8.006;2023-04-24T04:33:13;13.30;53.40
30520;DHT22;17300;50.374;8.006;2023-04-24T04:35:40;13.30;53.50
30520;DHT22;17300;50.374;8.006;2023-04-24T04:38:07;13.20;53.40
30520;DHT22;17300;50.374;8.006;2023-04-24T04:40:36;13.20;53.50
30520;DHT22;17300;50.374;8.006;2023-04-24T04:43:02;13.20;53.50
30520;DHT22;17300;50.374;8.006;2023-04-24T04:45:29;13.20;53.50
30520;DHT22;17300;50.374;8.006;2023-04-24T04:47:58;13.20;53.60
30520;DHT22;17300;50.374;8.006;2023-04-24T04:50:27;13.20;53.60
30520;DHT22;17300;50.374;8.006;2023-04-24T04:52:54;13.20;53.60
30520;DHT22;17300;50.374;8.006;2023-04-24T04:55:21;13.20;53.50
30520;DHT22;17300;50.374;8.006;2023-04-24T04:57:47;13.10;53.40
30520;DHT22;17300;50.374;8.006;2023-04-24T05:00:14;13.10;53.50
30520;DHT22;17300;50.374;8.006;2023-04-24T05:02:41;13.10;53.50
30520;DHT22;17300;50.374;8.006;2023-04-24T05:05:08;13.10;53.50
30520;DHT22;17300;50.374;8.006;2023-04-24T05:07:36;13.00;53.70
30520;DHT22;17300;50.374;8.006;2023-04-24T05:10:03;13.00;53.70
30520;DHT22;17300;50.374;8.006;2023-04-24T05:12:30;13.00;53.70
30520;DHT22;17300;50.374;8.006;2023-04-24T05:14:57;13.00;53.70
30520;DHT22;17300;50.374;8.006;2023-04-24T05:17:24;13.00;53.70
30520;DHT22;17300;50.374;8.006;2023-04-24T05:19:51;13.00;53.70
30520;DHT22;17300;50.374;8.006;2023-04-24T05:22:17;13.00;53.80
30520;DHT22;17300;50.374;8.006;2023-04-24T05:24:47;13.00;53.90
30520;DHT22;17300;50.374;8.006;2023-04-24T05:27:14;13.00;54.00
30520;DHT22;17300;50.374;8.006;2023-04-24T05:29:41;13.10;54.70
30520;DHT22;17300;50.374;8.006;2023-04-24T05:32:07;13.20;56.20
30520;DHT22;17300;50.374;8.006;2023-04-24T05:34:34;13.60;58.10
30520;DHT22;17300;50.374;8.006;2023-04-24T05:37:01;14.00;59.60
30520;DHT22;17300;50.374;8.006;2023-04-24T05:39:28;14.60;60.70
30520;DHT22;17300;50.374;8.006;2023-04-24T05:41:56;15.30;61.60
30520;DHT22;17300;50.374;8.006;2023-04-24T05:44:23;16.10;61.30
30520;DHT22;17300;50.374;8.006;2023-04-24T05:46:51;16.90;61.30
30520;DHT22;17300;50.374;8.006;2023-04-24T05:49:17;17.70;60.60
30520;DHT22;17300;50.374;8.006;2023-04-24T05:51:44;18.50;59.80
30520;DHT22;17300;50.374;8.006;2023-04-24T05:54:11;19.30;59.40
30520;DHT22;17300;50.374;8.006;2023-04-24T05:56:39;20.00;58.70
30520;DHT22;17300;50.374;8.006;2023-04-24T05:59:08;20.70;57.40
30520;DHT22;17300;50.374;8.006;2023-04-24T06:01:35;21.40;56.60
30520;DHT22;17300;50.374;8.006;2023-04-24T06:04:02;22.10;56.30
30520;DHT22;17300;50.374;8.006;2023-04-24T06:06:29;22.70;55.30
30520;DHT22;17300;50.374;8.006;2023-04-24T06:08:56;23.20;54.50
30520;DHT22;17300;50.374;8.006;2023-04-24T06:11:24;23.70;53.70
30520;DHT22;17300;50.374;8.006;2023-04-24T06:13:50;24.10;52.40
30520;DHT22;17300;50.374;8.006;2023-04-24T06:16:20;24.40;51.20
30520;DHT22;17300;50.374;8.006;2023-04-24T06:18:47;24.60;49.20
30520;DHT22;17300;50.374;8.006;2023-04-24T06:21:16;24.70;48.40
30520;DHT22;17300;50.374;8.006;2023-04-24T06:23:43;24.80;47.50
30520;DHT22;17300;50.374;8.006;2023-04-24T06:26:11;24.80;46.80
30520;DHT22;17300;50.374;8.006;2023-04-24T06:28:52;24.80;46.70
30520;DHT22;17300;50.374;8.006;2023-04-24T06:31:37;24.70;46.10
30520;DHT22;17300;50.374;8.006;2023-04-24T06:34:04;24.90;48.40
30520;DHT22;17300;50.374;8.006;2023-04-24T06:36:31;25.20;48.80
30520;DHT22;17300;50.374;8.006;2023-04-24T06:39:00;25.50;48.70
30520;DHT22;17300;50.374;8.006;2023-04-24T06:41:27;25.70;47.50
30520;DHT22;17300;50.374;8.006;2023-04-24T06:43:54;25.90;46.10
30520;DHT22;17300;50.374;8.006;2023-04-24T06:46:21;26.00;44.30
30520;DHT22;17300;50.374;8.006;2023-04-24T06:48:50;26.00;43.50
30520;DHT22;17300;50.374;8.006;2023-04-24T06:51:17;26.00;44.10
30520;DHT22;17300;50.374;8.006;2023-04-24T06:53:44;26.10;45.00
30520;DHT22;17300;50.374;8.006;2023-04-24T06:56:11;26.40;45.90
30520;DHT22;17300;50.374;8.006;2023-04-24T06:58:37;26.70;46.40
30520;DHT22;17300;50.374;8.006;2023-04-24T07:01:04;27.30;46.70
30520;DHT22;17300;50.374;8.006;2023-04-24T07:03:31;27.90;46.80
30520;DHT22;17300;50.374;8.006;2023-04-24T07:05:59;28.50;46.50
30520;DHT22;17300;50.374;8.006;2023-04-24T07:08:26;29.20;45.50
30520;DHT22;17300;50.374;8.006;2023-04-24T07:10:53;29.90;44.90
30520;DHT22;17300;50.374;8.006;2023-04-24T07:13:21;30.50;43.80
30520;DHT22;17300;50.374;8.006;2023-04-24T07:15:48;31.00;42.40
30520;DHT22;17300;50.374;8.006;2023-04-24T07:18:16;31.30;40.20
30520;DHT22;17300;50.374;8.006;2023-04-24T07:20:43;31.60;38.90
30520;DHT22;17300;50.374;8.006;2023-04-24T07:23:11;31.70;38.10
30520;DHT22;17300;50.374;8.006;2023-04-24T07:25:38;31.80;37.40
30520;DHT22;17300;50.374;8.006;2023-04-24T07:28:06;31.80;37.00
30520;DHT22;17300;50.374;8.006;2023-04-24T07:30:33;31.90;36.60
30520;DHT22;17300;50.374;8.006;2023-04-24T07:32:59;32.00;36.40
30520;DHT22;17300;50.374;8.006;2023-04-24T07:35:26;32.10;36.40
30520;DHT22;17300;50.374;8.006;2023-04-24T07:37:53;32.30;36.40
30520;DHT22;17300;50.374;8.006;2023-04-24T07:40:22;32.50;36.30
30520;DHT22;17300;50.374;8.006;2023-04-24T07:42:49;32.70;35.10
30520;DHT22;17300;50.374;8.006;2023-04-24T07:45:15;32.70;33.70
30520;DHT22;17300;50.374;8.006;2023-04-24T07:47:42;32.50;32.30
30520;DHT22;17300;50.374;8.006;2023-04-24T07:50:11;32.10;31.30
30520;DHT22;17300;50.374;8.006;2023-04-24T07:52:38;31.50;30.50
30520;DHT22;17300;50.374;8.006;2023-04-24T07:55:05;30.90;30.20
30520;DHT22;17300;50.374;8.006;2023-04-24T07:57:34;30.00;29.90
30520;DHT22;17300;50.374;8.006;2023-04-24T08:00:02;29.20;29.70
30520;DHT22;17300;50.374;8.006;2023-04-24T08:02:29;28.30;29.80
30520;DHT22;17300;50.374;8.006;2023-04-24T08:04:55;27.50;30.20
30520;DHT22;17300;50.374;8.006;2023-04-24T08:07:23;26.60;30.60
30520;DHT22;17300;50.374;8.006;2023-04-24T08:09:50;25.80;31.00
30520;DHT22;17300;50.374;8.006;2023-04-24T08:12:16;25.10;31.50
30520;DHT22;17300;50.374;8.006;2023-04-24T08:14:44;24.40;32.00
30520;DHT22;17300;50.374;8.006;2023-04-24T08:17:11;23.80;32.50
30520;DHT22;17300;50.374;8.006;2023-04-24T08:19:40;23.20;32.90
30520;DHT22;17300;50.374;8.006;2023-04-24T08:22:12;22.70;33.10
30520;DHT22;17300;50.374;8.006;2023-04-24T08:24:39;22.30;33.70
30520;DHT22;17300;50.374;8.006;2023-04-24T08:27:06;21.90;34.10
30520;DHT22;17300;50.374;8.006;2023-04-24T08:29:32;21.50;34.50
30520;DHT22;17300;50.374;8.006;2023-04-24T08:32:00;21.20;34.80
30520;DHT22;17300;50.374;8.006;2023-04-24T08:34:27;21.00;35.30
30520;DHT22;17300;50.374;8.006;2023-04-24T08:36:54;20.70;35.50
30520;DHT22;17300;50.374;8.006;2023-04-24T08:39:20;20.50;35.70
30520;DHT22;17300;50.374;8.006;2023-04-24T08:41:48;20.30;36.10
30520;DHT22;17300;50.374;8.006;2023-04-24T08:44:15;20.20;36.40
30520;DHT22;17300;50.374;8.006;2023-04-24T08:46:43;20.10;36.50
30520;DHT22;17300;50.374;8.006;2023-04-24T08:49:13;20.00;37.10
30520;DHT22;17300;50.374;8.006;2023-04-24T08:51:42;19.90;37.00
30520;DHT22;17300;50.374;8.006;2023-04-24T08:54:08;19.90;37.00
30520;DHT22;17300;50.374;8.006;2023-04-24T08:56:36;19.80;37.00
30520;DHT22;17300;50.374;8.006;2023-04-24T08:59:05;19.70;36.90
30520;DHT22;17300;50.374;8.006;2023-04-24T09:01:33;19.60;36.80
30520;DHT22;17300;50.374;8.006;2023-04-24T09:04:02;19.50;37.10
30520;DHT22;17300;50.374;8.006;2023-04-24T09:06:31;19.40;37.20
30520;DHT22;17300;50.374;8.006;2023-04-24T09:09:00;19.20;37.30
30520;DHT22;17300;50.374;8.006;2023-04-24T09:11:27;19.10;37.50
30520;DHT22;17300;50.374;8.006;2023-04-24T09:13:54;19.10;38.10
30520;DHT22;17300;50.374;8.006;2023-04-24T09:16:22;19.10;38.70
30520;DHT22;17300;50.374;8.006;2023-04-24T09:18:49;19.10;39.20
30520;DHT22;17300;50.374;8.006;2023-04-24T09:21:16;19.20;39.50
30520;DHT22;17300;50.374;8.006;2023-04-24T09:23:44;19.40;40.20
30520;DHT22;17300;50.374;8.006;2023-04-24T09:26:11;19.60;40.50
30520;DHT22;17300;50.374;8.006;2023-04-24T09:28:41;19.80;40.70
30520;DHT22;17300;50.374;8.006;2023-04-24T09:31:11;19.90;40.40
30520;DHT22;17300;50.374;8.006;2023-04-24T09:33:38;20.00;40.00
30520;DHT22;17300;50.374;8.006;2023-04-24T09:36:05;20.10;39.90
30520;DHT22;17300;50.374;8.006;2023-04-24T09:38:33;20.10;39.70
30520;DHT22;17300;50.374;8.006;2023-04-24T09:41:05;20.00;39.60
30520;DHT22;17300;50.374;8.006;2023-04-24T09:43:32;20.00;39.90
30520;DHT22;17300;50.374;8.006;2023-04-24T09:46:04;19.90;39.80
30520;DHT22;17300;50.374;8.006;2023-04-24T09:48:31;19.90;40.10
30520;DHT22;17300;50.374;8.006;2023-04-24T09:50:59;19.90;40.00
30520;DHT22;17300;50.374;8.006;2023-04-24T09:53:27;19.90;39.90
30520;DHT22;17300;50.374;8.006;2023-04-24T09:55:54;19.90;39.80
30520;DHT22;17300;50.374;8.006;2023-04-24T09:58:26;19.90;39.70
30520;DHT22;17300;50.374;8.006;2023-04-24T10:00:56;19.80;39.50
30520;DHT22;17300;50.374;8.006;2023-04-24T10:03:24;19.80;39.70
30520;DHT22;17300;50.374;8.006;2023-04-24T10:05:52;19.60;39.50
30520;DHT22;17300;50.374;8.006;2023-04-24T10:08:20;19.60;39.60
30520;DHT22;17300;50.374;8.006;2023-04-24T10:10:47;19.50;39.90
30520;DHT22;17300;50.374;8.006;2023-04-24T10:13:14;19.40;39.90
30520;DHT22;17300;50.374;8.006;2023-04-24T10:15:42;19.30;40.20
30520;DHT22;17300;50.374;8.006;2023-04-24T10:18:10;19.20;40.20
30520;DHT22;17300;50.374;8.006;2023-04-24T10:20:39;19.10;40.30
30520;DHT22;17300;50.374;8.006;2023-04-24T10:23:06;18.90;40.40
30520;DHT22;17300;50.374;8.006;2023-04-24T10:25:34;18.80;40.60
30520;DHT22;17300;50.374;8.006;2023-04-24T10:28:02;18.60;40.90
30520;DHT22;17300;50.374;8.006;2023-04-24T10:30:31;18.40;41.10
30520;DHT22;17300;50.374;8.006;2023-04-24T10:33:02;18.30;41.50
30520;DHT22;17300;50.374;8.006;2023-04-24T10:35:31;18.20;42.20
30520;DHT22;17300;50.374;8.006;2023-04-24T10:38:01;18.10;42.90
30520;DHT22;17300;50.374;8.006;2023-04-24T10:40:31;18.20;43.90
30520;DHT22;17300;50.374;8.006;2023-04-24T10:42:57;18.30;44.50
30520;DHT22;17300;50.374;8.006;2023-04-24T10:45:25;18.40;44.50
30520;DHT22;17300;50.374;8.006;2023-04-24T10:48:04;18.60;44.20
30520;DHT22;17300;50.374;8.006;2023-04-24T10:50:43;18.80;44.20
30520;DHT22;17300;50.374;8.006;2023-04-24T10:53:13;18.90;44.10
30520;DHT22;17300;50.374;8.006;2023-04-24T10:55:45;18.90;43.60
30520;DHT22;17300;50.374;8.006;2023-04-24T10:58:12;19.00;43.40
30520;DHT22;17300;50.374;8.006;2023-04-24T11:00:40;19.00;43.80
30520;DHT22;17300;50.374;8.006;2023-04-24T11:03:24;19.10;44.50
30520;DHT22;17300;50.374;8.006;2023-04-24T11:06:00;19.30;45.60
30520;DHT22;17300;50.374;8.006;2023-04-24T11:08:29;19.60;46.40
30520;DHT22;17300;50.374;8.006;2023-04-24T11:10:59;19.90;46.40
30520;DHT22;17300;50.374;8.006;2023-04-24T11:13:31;20.20;45.90
30520;DHT22;17300;50.374;8.006;2023-04-24T11:16:15;20.50;45.00
30520;DHT22;17300;50.374;8.006;2023-04-24T11:18:50;20.70;44.10
30520;DHT22;17300;50.374;8.006;2023-04-24T11:21:19;20.80;43.30
30520;DHT22;17300;50.374;8.006;2023-04-24T11:23:46;20.80;42.90
30520;DHT22;17300;50.374;8.006;2023-04-24T11:26:18;20.70;42.60
30520;DHT22;17300;50.374;8.006;2023-04-24T11:28:46;20.60;42.50
30520;DHT22;17300;50.374;8.006;2023-04-24T11:31:35;20.50;42.30
30520;DHT22;17300;50.374;8.006;2023-04-24T11:34:08;20.30;42.60
30520;DHT22;17300;50.374;8.006;2023-04-24T11:36:35;20.10;42.70
30520;DHT22;17300;50.374;8.006;2023-04-24T11:39:02;20.00;43.20
30520;DHT22;17300;50.374;8.006;2023-04-24T11:41:29;20.00;43.60
30520;DHT22;17300;50.374;8.006;2023-04-24T11:43:56;20.00;43.70
30520;DHT22;17300;50.374;8.006;2023-04-24T11:46:26;20.10;43.70
30520;DHT22;17300;50.374;8.006;2023-04-24T11:48:53;20.20;43.50
30520;DHT22;17300;50.374;8.006;2023-04-24T11:51:22;20.10;43.00
30520;DHT22;17300;50.374;8.006;2023-04-24T11:53:49;20.10;43.00
30520;DHT22;17300;50.374;8.006;2023-04-24T11:56:17;19.90;42.50
30520;DHT22;17300;50.374;8.006;2023-04-24T11:58:45;19.80;42.10
30520;DHT22;17300;50.374;8.006;2023-04-24T12:01:12;19.50;41.60
30520;DHT22;17300;50.374;8.006;2023-04-24T12:03:39;19.30;41.40
30520;DHT22;17300;50.374;8.006;2023-04-24T12:06:09;18.90;41.70
30520;DHT22;17300;50.374;8.006;2023-04-24T12:08:38;18.60;42.00
30520;DHT22;17300;50.374;8.006;2023-04-24T12:11:06;18.30;42.40
30520;DHT22;17300;50.374;8.006;2023-04-24T12:13:33;18.00;42.70
30520;DHT22;17300;50.374;8.006;2023-04-24T12:16:02;17.80;43.10
30520;DHT22;17300;50.374;8.006;2023-04-24T12:18:29;17.60;43.70
30520;DHT22;17300;50.374;8.006;2023-04-24T12:21:14;17.40;44.00
30520;DHT22;17300;50.374;8.006;2023-04-24T12:23:44;17.20;45.20
30520;DHT22;17300;50.374;8.006;2023-04-24T12:26:11;17.10;45.00
30520;DHT22;17300;50.374;8.006;2023-04-24T12:28:39;17.10;45.30
30520;DHT22;17300;50.374;8.006;2023-04-24T12:31:06;17.10;45.60
30520;DHT22;17300;50.374;8.006;2023-04-24T12:33:35;17.10;45.80
30520;DHT22;17300;50.374;8.006;2023-04-24T12:36:02;17.10;46.10
30520;DHT22;17300;50.374;8.006;2023-04-24T12:38:29;17.20;46.40
30520;DHT22;17300;50.374;8.006;2023-04-24T12:41:04;17.30;46.90
30520;DHT22;17300;50.374;8.006;2023-04-24T12:43:31;17.50;47.70
30520;DHT22;17300;50.374;8.006;2023-04-24T12:45:58;17.60;47.70
30520;DHT22;17300;50.374;8.006;2023-04-24T12:48:25;17.80;48.30
30520;DHT22;17300;50.374;8.006;2023-04-24T12:50:52;18.10;48.60
30520;DHT22;17300;50.374;8.006;2023-04-24T12:53:19;18.30;48.20
30520;DHT22;17300;50.374;8.006;2023-04-24T12:55:45;18.50;47.60
30520;DHT22;17300;50.374;8.006;2023-04-24T12:58:19;18.60;47.10
30520;DHT22;17300;50.374;8.006;2023-04-24T13:00:47;18.70;46.80
30520;DHT22;17300;50.374;8.006;2023-04-24T13:03:18;18.90;46.70
30520;DHT22;17300;50.374;8.006;2023-04-24T13:05:44;19.00;46.30
30520;DHT22;17300;50.374;8.006;2023-04-24T13:08:11;19.00;46.10
30520;DHT22;17300;50.374;8.006;2023-04-24T13:10:39;19.10;46.10
30520;DHT22;17300;50.374;8.006;2023-04-24T13:13:06;19.10;46.00
30520;DHT22;17300;50.374;8.006;2023-04-24T13:15:34;19.10;45.60
30520;DHT22;17300;50.374;8.006;2023-04-24T13:18:01;19.10;45.40
30520;DHT22;17300;50.374;8.006;2023-04-24T13:20:28;19.10;45.60
30520;DHT22;17300;50.374;8.006;2023-04-24T13:22:55;19.00;46.60
30520;DHT22;17300;50.374;8.006;2023-04-24T13:25:21;19.00;46.40
30520;DHT22;17300;50.374;8.006;2023-04-24T13:27:49;19.10;46.70
30520;DHT22;17300;50.374;8.006;2023-04-24T13:30:16;19.10;46.70
30520;DHT22;17300;50.374;8.006;2023-04-24T13:32:44;19.20;46.20
30520;DHT22;17300;50.374;8.006;2023-04-24T13:35:10;19.20;45.80
30520;DHT22;17300;50.374;8.006;2023-04-24T13:37:37;19.30;45.90
30520;DHT22;17300;50.374;8.006;2023-04-24T13:40:05;19.40;45.80
30520;DHT22;17300;50.374;8.006;2023-04-24T13:42:32;19.40;45.30
30520;DHT22;17300;50.374;8.006;2023-04-24T13:44:59;19.30;45.00
30520;DHT22;17300;50.374;8.006;2023-04-24T13:47:26;19.30;44.90
30520;DHT22;17300;50.374;8.006;2023-04-24T13:49:54;19.20;44.40
30520;DHT22;17300;50.374;8.006;2023-04-24T13:52:20;19.10;44.50
30520;DHT22;17300;50.374;8.006;2023-04-24T13:54:47;19.00;44.20
30520;DHT22;17300;50.374;8.006;2023-04-24T13:57:14;18.80;44.10
30520;DHT22;17300;50.374;8.006;2023-04-24T13:59:41;18.70;44.00
30520;DHT22;17300;50.374;8.006;2023-04-24T14:02:08;18.60;44.00
30520;DHT22;17300;50.374;8.006;2023-04-24T14:04:35;18.50;44.10
30520;DHT22;17300;50.374;8.006;2023-04-24T14:07:03;18.40;44.30
30520;DHT22;17300;50.374;8.006;2023-04-24T14:09:29;18.20;44.50
30520;DHT22;17300;50.374;8.006;2023-04-24T14:11:56;18.20;44.70
30520;DHT22;17300;50.374;8.006;2023-04-24T14:14:23;18.10;45.10
30520;DHT22;17300;50.374;8.006;2023-04-24T14:16:49;18.10;45.60
30520;DHT22;17300;50.374;8.006;2023-04-24T14:19:16;18.10;46.10
30520;DHT22;17300;50.374;8.006;2023-04-24T14:21:43;18.20;46.10
30520;DHT22;17300;50.374;8.006;2023-04-24T14:24:11;18.30;46.10
30520;DHT22;17300;50.374;8.006;2023-04-24T14:26:37;18.50;46.40
30520;DHT22;17300;50.374;8.006;2023-04-24T14:29:04;18.60;46.50
30520;DHT22;17300;50.374;8.006;2023-04-24T14:31:31;18.80;46.30
30520;DHT22;17300;50.374;8.006;2023-04-24T14:33:57;18.90;45.90
30520;DHT22;17300;50.374;8.006;2023-04-24T14:36:24;19.10;45.50
30520;DHT22;17300;50.374;8.006;2023-04-24T14:38:51;19.20;45.30
30520;DHT22;17300;50.374;8.006;2023-04-24T14:41:19;19.30;45.10
30520;DHT22;17300;50.374;8.006;2023-04-24T14:43:45;19.30;44.70
30520;DHT22;17300;50.374;8.006;2023-04-24T14:46:12;19.30;44.50
30520;DHT22;17300;50.374;8.006;2023-04-24T14:48:39;19.40;44.40
30520;DHT22;17300;50.374;8.006;2023-04-24T14:51:05;19.40;44.10
30520;DHT22;17300;50.374;8.006;2023-04-24T14:53:32;19.30;43.90
30520;DHT22;17300;50.374;8.006;2023-04-24T14:55:59;19.30;43.70
30520;DHT22;17300;50.374;8.006;2023-04-24T14:58:26;19.20;43.40
30520;DHT22;17300;50.374;8.006;2023-04-24T15:00:53;19.10;43.30
30520;DHT22;17300;50.374;8.006;2023-04-24T15:03:20;19.10;43.20
30520;DHT22;17300;50.374;8.006;2023-04-24T15:05:48;18.90;43.20
30520;DHT22;17300;50.374;8.006;2023-04-24T15:08:15;18.80;43.00
30520;DHT22;17300;50.374;8.006;2023-04-24T15:10:41;18.70;43.00
30520;DHT22;17300;50.374;8.006;2023-04-24T15:13:08;18.60;42.90
30520;DHT22;17300;50.374;8.006;2023-04-24T15:15:36;18.50;42.90
30520;DHT22;17300;50.374;8.006;2023-04-24T15:18:04;18.30;43.00
30520;DHT22;17300;50.374;8.006;2023-04-24T15:20:31;18.30;43.20
30520;DHT22;17300;50.374;8.006;2023-04-24T15:22:57;18.20;43.40
30520;DHT22;17300;50.374;8.006;2023-04-24T15:25:25;18.20;43.80
30520;DHT22;17300;50.374;8.006;2023-04-24T15:27:52;18.10;43.90
30520;DHT22;17300;50.374;8.006;2023-04-24T15:30:18;18.10;44.10
30520;DHT22;17300;50.374;8.006;2023-04-24T15:32:46;18.00;44.20